createdAt,value
2022-11-05T00:01:02.791Z,99305.91
2022-11-05T00:03:48.693Z,99305.81
2022-11-05T00:06:34.907Z,99302.22
2022-11-05T00:09:21.142Z,99304.09
2022-11-05T00:12:07.101Z,99296.72
2022-11-05T00:14:53.254Z,99299.31
2022-11-05T00:17:21.204Z,99301.91
2022-11-05T00:19:48.721Z,99294.97
2022-11-05T00:22:34.569Z,99293.72
2022-11-05T00:25:17.347Z,99296.00
2022-11-05T00:27:47.612Z,99285.13
2022-11-05T00:30:22.033Z,99285.72
2022-11-05T00:32:51.755Z,99298.81
2022-11-05T00:35:22.066Z,99286.97
2022-11-05T00:37:50.613Z,99281.97
2022-11-05T00:40:18.491Z,99283.38
2022-11-05T00:43:04.421Z,99283.25
2022-11-05T00:45:32.472Z,99286.06
2022-11-05T00:48:18.336Z,99284.03
2022-11-05T00:50:46.114Z,99281.75
2022-11-05T00:53:13.886Z,99276.50
2022-11-05T00:55:44.750Z,99277.28
2022-11-05T00:58:23.258Z,99285.59
2022-11-05T01:00:53.893Z,99285.31
2022-11-05T01:03:26.580Z,99287.03
2022-11-05T01:06:08.052Z,99287.78
2022-11-05T01:08:36.548Z,99282.38
2022-11-05T01:11:33.223Z,99284.34
2022-11-05T01:14:07.836Z,99278.00
2022-11-05T01:16:39.308Z,99266.59
2022-11-05T01:19:10.162Z,99263.34
2022-11-05T01:21:37.743Z,99258.63
2022-11-05T01:24:05.773Z,99259.69
2022-11-05T01:26:33.300Z,99257.31
2022-11-05T01:29:00.892Z,99253.78
2022-11-05T01:31:29.215Z,99245.31
2022-11-05T01:33:56.669Z,99233.47
2022-11-05T01:36:24.219Z,99243.84
2022-11-05T01:38:51.714Z,99234.34
2022-11-05T01:41:19.306Z,99244.34
2022-11-05T01:43:51.050Z,99238.22
2022-11-05T01:46:24.117Z,99227.66
2022-11-05T01:48:57.271Z,99223.63
2022-11-05T01:51:29.085Z,99226.38
2022-11-05T01:54:04.924Z,99215.25
2022-11-05T01:56:43.930Z,99225.09
2022-11-05T01:59:30.706Z,99215.66
2022-11-05T02:01:59.349Z,99217.66
2022-11-05T02:05:07.643Z,99218.44
2022-11-05T02:07:35.270Z,99214.13
2022-11-05T02:10:13.828Z,99205.97
2022-11-05T02:12:45.110Z,99204.25
2022-11-05T02:15:52.059Z,99206.66
2022-11-05T02:19:20.947Z,99213.44
2022-11-05T02:22:38.643Z,99206.59
2022-11-05T02:25:30.185Z,99211.09
2022-11-05T02:54:49.829Z,99216.63
2022-11-05T02:57:22.012Z,99219.34
2022-11-05T02:59:49.548Z,99227.59
2022-11-05T03:02:17.346Z,99209.13
2022-11-05T03:04:44.990Z,99203.22
2022-11-05T03:07:18.163Z,99209.19
2022-11-05T03:10:01.794Z,99217.31
2022-11-05T03:13:06.261Z,99214.69
2022-11-05T03:15:57.654Z,99215.00
2022-11-05T03:18:52.109Z,99226.25
2022-11-05T03:21:42.595Z,99228.38
2022-11-05T03:24:19.196Z,99222.13
2022-11-05T03:27:01.154Z,99227.25
2022-11-05T03:29:43.675Z,99222.78
2022-11-05T03:32:13.265Z,99211.13
2022-11-05T03:34:52.131Z,99210.25
2022-11-05T03:37:24.259Z,99210.75
2022-11-05T03:39:56.764Z,99208.63
2022-11-05T03:42:32.284Z,99206.09
2022-11-05T03:45:06.169Z,99200.88
2022-11-05T03:47:39.852Z,99205.34
2022-11-05T03:50:41.517Z,99211.44
2022-11-05T03:53:26.453Z,99206.25
2022-11-05T03:56:08.190Z,99210.44
2022-11-05T03:58:37.154Z,99201.53
2022-11-05T04:01:05.015Z,99200.00
2022-11-05T04:03:36.380Z,99207.69
2022-11-05T04:06:25.060Z,99206.41
2022-11-05T04:09:11.571Z,99215.69
2022-11-05T04:11:57.438Z,99217.25
2022-11-05T04:14:26.294Z,99207.75
2022-11-05T04:17:06.387Z,99209.38
2022-11-05T04:20:00.859Z,99218.56
2022-11-05T04:22:50.296Z,99219.59
2022-11-05T04:25:19.566Z,99223.63
2022-11-05T04:27:47.617Z,99212.00
2022-11-05T04:30:20.002Z,99220.50
2022-11-05T04:33:15.308Z,99227.28
2022-11-05T04:35:47.658Z,99228.66
2022-11-05T04:38:18.670Z,99217.84
2022-11-05T04:40:47.767Z,99220.81
2022-11-05T04:43:19.201Z,99228.28
2022-11-05T04:45:48.441Z,99236.94
2022-11-05T04:48:15.975Z,99237.94
2022-11-05T04:50:43.413Z,99235.88
2022-11-05T04:53:11.145Z,99236.28
2022-11-05T04:55:38.802Z,99232.34
2022-11-05T04:58:06.482Z,99244.66
2022-11-05T05:00:33.995Z,99249.56
2022-11-05T05:03:01.511Z,99257.81
2022-11-05T05:05:30.577Z,99251.91
2022-11-05T05:08:05.450Z,99241.88
2022-11-05T05:10:33.500Z,99246.78
2022-11-05T05:13:00.957Z,99251.53
2022-11-05T05:15:28.574Z,99252.88
2022-11-05T05:17:56.377Z,99260.50
2022-11-05T05:20:42.303Z,99264.31
2022-11-05T05:23:11.571Z,99259.00
2022-11-05T05:25:40.017Z,99275.53
2022-11-05T05:28:07.516Z,99270.00
2022-11-05T05:30:35.345Z,99271.16
2022-11-05T05:33:04.439Z,99283.41
2022-11-05T05:35:32.028Z,99292.91
2022-11-05T05:37:59.471Z,99294.84
2022-11-05T05:40:27.573Z,99293.09
2022-11-05T05:42:56.037Z,99286.34
2022-11-05T05:45:23.518Z,99304.88
2022-11-05T05:47:51.022Z,99299.53
2022-11-05T05:50:18.455Z,99296.78
2022-11-05T05:52:52.902Z,99299.28
2022-11-05T05:55:20.506Z,99304.16
2022-11-05T05:57:47.935Z,99310.06
2022-11-05T06:00:15.898Z,99311.50
2022-11-05T06:02:43.506Z,99313.31
2022-11-05T06:05:11.222Z,99305.88
2022-11-05T06:07:38.666Z,99319.00
2022-11-05T06:10:06.859Z,99317.75
2022-11-05T06:12:34.509Z,99314.81
2022-11-05T06:15:02.074Z,99313.38
2022-11-05T06:17:29.521Z,99315.13
2022-11-05T06:19:57.014Z,99309.13
2022-11-05T06:22:24.840Z,99317.75
2022-11-05T06:24:52.338Z,99320.78
2022-11-05T06:27:19.779Z,99329.28
2022-11-05T06:29:47.226Z,99335.78
2022-11-05T06:32:14.662Z,99327.16
2022-11-05T06:34:42.133Z,99325.81
2022-11-05T06:37:09.606Z,99332.91
2022-11-05T06:39:37.122Z,99323.63
2022-11-05T06:42:17.945Z,99334.69
2022-11-05T06:44:46.202Z,99336.63
2022-11-05T06:47:13.670Z,99334.03
2022-11-05T06:49:41.303Z,99342.69
2022-11-05T06:52:09.282Z,99343.16
2022-11-05T06:54:37.135Z,99333.88
2022-11-05T06:57:06.168Z,99329.72
2022-11-05T06:59:34.496Z,99330.94
2022-11-05T07:02:03.341Z,99330.66
2022-11-05T07:04:30.894Z,99331.00
2022-11-05T07:07:01.191Z,99324.81
2022-11-05T07:09:29.999Z,99326.31
2022-11-05T07:11:57.443Z,99331.22
2022-11-05T07:14:24.902Z,99327.72
2022-11-05T07:16:52.396Z,99317.50
2022-11-05T07:19:19.928Z,99325.75
2022-11-05T07:21:48.699Z,99326.44
2022-11-05T07:24:16.331Z,99329.97
2022-11-05T07:26:43.974Z,99339.69
2022-11-05T07:29:11.497Z,99328.91
2022-11-05T07:31:39.019Z,99322.06
2022-11-05T07:34:06.624Z,99323.97
2022-11-05T07:36:34.652Z,99323.69
2022-11-05T07:39:02.436Z,99338.13
2022-11-05T07:41:29.910Z,99335.78
2022-11-05T07:43:57.585Z,99322.00
2022-11-05T07:46:25.126Z,99322.59
2022-11-05T07:48:52.712Z,99320.31
2022-11-05T07:51:20.204Z,99318.25
2022-11-05T07:53:48.568Z,99320.06
2022-11-05T07:56:16.812Z,99304.97
2022-11-05T07:58:44.415Z,99310.72
2022-11-05T08:01:12.104Z,99305.09
2022-11-05T08:03:39.758Z,99300.81
2022-11-05T08:06:07.778Z,99303.72
2022-11-05T08:08:36.189Z,99302.50
2022-11-05T08:11:06.640Z,99303.09
2022-11-05T08:13:35.148Z,99304.06
2022-11-05T08:16:03.917Z,99304.25
2022-11-05T08:18:33.278Z,99291.00
2022-11-05T08:21:06.043Z,99301.47
2022-11-05T08:23:34.318Z,99296.97
2022-11-05T08:26:04.391Z,99295.34
2022-11-05T08:28:32.114Z,99291.56
2022-11-05T08:30:59.803Z,99291.84
2022-11-05T08:33:29.491Z,99288.66
2022-11-05T08:35:57.022Z,99286.31
2022-11-05T08:38:24.426Z,99273.53
2022-11-05T08:40:59.166Z,99291.25
2022-11-05T08:43:27.357Z,99297.09
2022-11-05T08:45:55.158Z,99282.53
2022-11-05T08:48:22.759Z,99278.16
2022-11-05T08:50:50.571Z,99280.59
2022-11-05T08:53:18.480Z,99281.91
2022-11-05T08:55:47.835Z,99270.88
2022-11-05T08:58:17.410Z,99267.94
2022-11-05T09:00:48.905Z,99260.59
2022-11-05T09:03:17.765Z,99265.94
2022-11-05T09:05:45.393Z,99278.06
2022-11-05T09:08:18.948Z,99284.72
2022-11-05T09:10:48.088Z,99274.41
2022-11-05T09:13:19.327Z,99262.41
2022-11-05T09:15:49.324Z,99261.28
2022-11-05T09:18:18.854Z,99261.88
2022-11-05T09:20:47.121Z,99266.50
2022-11-05T09:23:15.861Z,99264.44
2022-11-05T09:25:44.536Z,99266.94
2022-11-05T09:28:17.329Z,99260.22
2022-11-05T09:30:51.678Z,99251.16
2022-11-05T09:33:23.614Z,99256.09
2022-11-05T09:35:52.052Z,99266.38
2022-11-05T09:38:20.066Z,99254.97
2022-11-05T09:41:04.246Z,99254.06
2022-11-05T09:43:45.082Z,99251.84
2022-11-05T09:46:27.517Z,99243.72
2022-11-05T09:49:04.500Z,99242.06
2022-11-05T09:51:33.177Z,99253.88
2022-11-05T09:54:05.382Z,99251.81
2022-11-05T09:56:37.649Z,99242.97
2022-11-05T09:59:28.117Z,99243.34
2022-11-05T10:02:12.095Z,99242.53
2022-11-05T10:04:40.523Z,99244.13
2022-11-05T10:07:15.609Z,99230.84
2022-11-05T10:09:48.797Z,99215.56
2022-11-05T10:12:50.500Z,99213.09
2022-11-05T10:15:26.546Z,99216.66
2022-11-05T10:18:20.112Z,99209.81
2022-11-05T10:20:50.034Z,99204.25
2022-11-05T10:23:21.573Z,99205.00
2022-11-05T10:26:04.224Z,99198.94
2022-11-05T10:28:34.374Z,99203.09
2022-11-05T10:31:09.519Z,99201.97
2022-11-05T10:33:57.107Z,99203.13
2022-11-05T10:36:38.010Z,99187.91
2022-11-05T10:39:18.120Z,99201.59
2022-11-05T10:41:52.896Z,99189.03
2022-11-05T10:44:34.399Z,99190.84
2022-11-05T10:48:16.838Z,99187.78
2022-11-05T10:50:45.633Z,99180.59
2022-11-05T10:53:22.114Z,99182.31
2022-11-05T10:55:54.314Z,99177.00
2022-11-05T10:58:30.201Z,99175.38
2022-11-05T11:00:57.872Z,99168.47
2022-11-05T11:03:48.771Z,99167.63
2022-11-05T11:06:28.199Z,99167.56
2022-11-05T11:09:17.530Z,99162.44
2022-11-05T11:11:46.038Z,99158.47
2022-11-05T11:14:13.560Z,99147.75
2022-11-05T11:16:47.654Z,99157.50
2022-11-05T11:19:35.136Z,99150.50
2022-11-05T11:22:05.697Z,99136.59
2022-11-05T11:24:52.315Z,99131.84
2022-11-05T11:27:28.534Z,99124.91
2022-11-05T11:30:02.551Z,99123.59
2022-11-05T11:32:40.178Z,99122.78
2022-11-05T11:35:26.007Z,99126.78
2022-11-05T11:37:57.150Z,99131.47
2022-11-05T11:40:35.549Z,99121.97
2022-11-05T11:43:28.392Z,99108.50
2022-11-05T11:46:04.847Z,99100.44
2022-11-05T11:48:37.070Z,99105.78
2022-11-05T11:51:30.462Z,99109.50
2022-11-05T11:54:02.837Z,99105.63
2022-11-05T11:56:43.132Z,99098.56
2022-11-05T11:59:46.890Z,99111.31
2022-11-05T12:02:44.254Z,99101.25
2022-11-05T12:05:59.588Z,99103.03
2022-11-05T12:09:11.173Z,99104.50
2022-11-05T12:12:00.865Z,99101.38
2022-11-05T12:15:01.740Z,99100.56
2022-11-05T12:18:02.107Z,99100.38
2022-11-05T12:20:48.033Z,99101.63
2022-11-05T12:23:37.120Z,99094.78
2022-11-05T12:26:25.761Z,99102.47
2022-11-05T12:29:23.876Z,99101.50
2022-11-05T12:32:12.932Z,99103.84
2022-11-05T12:35:44.131Z,99101.88
2022-11-05T12:38:58.244Z,99095.22
2022-11-05T12:42:35.227Z,99099.97
2022-11-05T12:45:26.131Z,99101.59
2022-11-05T12:48:16.659Z,99101.13
2022-11-05T12:50:57.181Z,99099.66
2022-11-05T12:53:37.563Z,99106.91
2022-11-05T12:56:33.682Z,99088.84
2022-11-05T12:59:25.935Z,99085.50
2022-11-05T13:02:15.337Z,99094.31
2022-11-05T13:05:10.081Z,99099.56
2022-11-05T13:08:05.321Z,99095.78
2022-11-05T13:10:51.131Z,99093.56
2022-11-05T13:13:51.985Z,99075.56
2022-11-05T13:16:39.851Z,99076.38
2022-11-05T13:19:32.546Z,99077.06
2022-11-05T13:22:30.451Z,99065.09
2022-11-05T13:25:19.611Z,99066.03
2022-11-05T13:28:35.628Z,99067.09
2022-11-05T13:31:06.785Z,99066.59
2022-11-05T13:33:44.744Z,99071.75
2022-11-05T13:36:52.491Z,99075.53
2022-11-05T13:39:24.367Z,99077.84
2022-11-05T13:42:35.224Z,99072.25
2022-11-05T13:45:39.056Z,99067.31
2022-11-05T13:48:48.412Z,99076.06
2022-11-05T13:51:40.511Z,99068.03
2022-11-05T13:54:29.552Z,99073.53
2022-11-05T13:57:26.210Z,99072.09
2022-11-05T14:00:17.596Z,99075.53
2022-11-05T14:02:55.324Z,99081.97
2022-11-05T14:05:35.328Z,99080.50
2022-11-05T14:08:15.334Z,99088.94
2022-11-05T14:11:00.685Z,99088.94
2022-11-05T14:14:06.866Z,99087.78
2022-11-05T14:16:57.220Z,99093.47
2022-11-05T14:19:33.446Z,99096.13
2022-11-05T14:22:01.784Z,99090.03
2022-11-05T14:24:38.614Z,99088.09
2022-11-05T14:27:10.507Z,99082.72
2022-11-05T14:29:44.771Z,99082.00
2022-11-05T14:32:22.071Z,99090.41
2022-11-05T14:35:17.207Z,99097.31
2022-11-05T14:37:54.056Z,99093.44
2022-11-05T14:40:42.568Z,99092.53
2022-11-05T14:43:16.100Z,99098.47
2022-11-05T14:46:17.371Z,99085.09
2022-11-05T14:49:09.310Z,99083.91
2022-11-05T14:51:44.453Z,99076.59
2022-11-05T14:54:34.814Z,99080.00
2022-11-05T14:57:03.522Z,99075.81
2022-11-05T14:59:32.487Z,99072.66
2022-11-05T15:02:20.871Z,99078.56
2022-11-05T15:04:51.040Z,99084.53
2022-11-05T15:07:24.374Z,99085.13
2022-11-05T15:09:54.839Z,99077.06
2022-11-05T15:12:50.845Z,99077.81
2022-11-05T15:15:39.743Z,99085.06
2022-11-05T15:18:17.854Z,99089.72
2022-11-05T15:20:52.583Z,99091.50
2022-11-05T15:23:31.217Z,99083.78
2022-11-05T15:26:04.657Z,99075.63
2022-11-05T15:28:51.156Z,99071.31
2022-11-05T15:31:44.151Z,99075.44
2022-11-05T15:34:32.503Z,99090.16
2022-11-05T15:37:25.441Z,99089.31
2022-11-05T15:39:57.684Z,99092.31
2022-11-05T15:42:28.512Z,99095.28
2022-11-05T15:45:00.490Z,99099.44
2022-11-05T15:47:36.114Z,99103.31
2022-11-05T15:50:17.367Z,99101.56
2022-11-05T15:52:56.699Z,99109.84
2022-11-05T15:55:31.272Z,99106.78
2022-11-05T15:58:07.460Z,99105.28
2022-11-05T16:00:39.121Z,99112.81
2022-11-05T16:03:28.984Z,99114.50
2022-11-05T16:05:57.493Z,99114.97
2022-11-05T16:08:33.510Z,99115.28
2022-11-05T16:11:02.736Z,99118.25
2022-11-05T16:13:39.551Z,99119.97
2022-11-05T16:16:19.420Z,99125.34
2022-11-05T16:18:50.474Z,99124.31
2022-11-05T16:21:23.737Z,99126.69
2022-11-05T16:24:01.475Z,99122.50
2022-11-05T16:27:01.810Z,99124.81
2022-11-05T16:29:41.228Z,99129.69
2022-11-05T16:32:31.572Z,99127.94
2022-11-05T16:35:09.770Z,99128.66
2022-11-05T16:37:47.737Z,99130.25
2022-11-05T16:40:25.947Z,99141.88
2022-11-05T16:42:55.401Z,99140.03
2022-11-05T16:45:25.542Z,99138.88
2022-11-05T16:47:53.380Z,99127.59
2022-11-05T16:50:30.470Z,99131.41
2022-11-05T16:53:01.804Z,99136.00
2022-11-05T16:55:32.298Z,99138.38
2022-11-05T16:58:00.704Z,99144.75
2022-11-05T17:00:36.676Z,99144.69
2022-11-05T17:03:08.215Z,99142.19
2022-11-05T17:05:38.140Z,99143.72
2022-11-05T17:08:09.260Z,99143.50
2022-11-05T17:10:41.142Z,99149.59
2022-11-05T17:13:18.782Z,99144.03
2022-11-05T17:16:16.168Z,99147.47
2022-11-05T17:18:46.908Z,99158.03
2022-11-05T17:21:16.725Z,99155.00
2022-11-05T17:23:47.271Z,99165.19
2022-11-05T17:26:22.959Z,99161.13
2022-11-05T17:28:55.322Z,99160.97
2022-11-05T17:31:23.173Z,99154.94
2022-11-05T17:33:50.862Z,99150.69
2022-11-05T17:36:21.289Z,99163.06
2022-11-05T17:38:55.273Z,99161.66
2022-11-05T17:41:25.670Z,99164.91
2022-11-05T17:43:58.578Z,99170.63
2022-11-05T17:46:27.450Z,99166.47
2022-11-05T17:48:56.317Z,99162.53
2022-11-05T17:51:24.074Z,99157.78
2022-11-05T17:53:54.541Z,99158.13
2022-11-05T17:56:33.846Z,99161.25
2022-11-05T17:59:03.830Z,99159.03
2022-11-05T18:01:36.038Z,99166.00
2022-11-05T18:04:08.888Z,99168.59
2022-11-05T18:06:39.694Z,99167.81
2022-11-05T18:09:11.050Z,99171.31
2022-11-05T18:11:40.728Z,99171.25
2022-11-05T18:14:12.206Z,99161.97
2022-11-05T18:16:39.961Z,99160.13
2022-11-05T18:19:10.566Z,99180.63
2022-11-05T18:21:45.207Z,99172.84
2022-11-05T18:24:12.980Z,99176.03
2022-11-05T18:26:40.670Z,99172.59
2022-11-05T18:29:09.057Z,99163.50
2022-11-05T18:31:36.880Z,99182.88
2022-11-05T18:34:05.316Z,99173.16
2022-11-05T18:36:36.059Z,99183.53
2022-11-05T18:39:07.879Z,99184.16
2022-11-05T18:41:37.159Z,99187.66
2022-11-05T18:44:06.025Z,99181.78
2022-11-05T18:46:57.073Z,99173.34
2022-11-05T18:49:24.131Z,99167.75
2022-11-05T18:51:51.902Z,99167.09
2022-11-05T18:54:21.659Z,99162.84
2022-11-05T18:56:52.064Z,99168.00
2022-11-05T18:59:38.613Z,99164.84
2022-11-05T19:02:10.931Z,99173.59
2022-11-05T19:04:39.099Z,99167.59
2022-11-05T19:07:10.897Z,99172.94
2022-11-05T19:09:40.641Z,99180.41
2022-11-05T19:12:10.422Z,99181.97
2022-11-05T19:14:38.270Z,99184.91
2022-11-05T19:17:06.116Z,99200.19
2022-11-05T19:19:33.944Z,99176.81
2022-11-05T19:22:05.304Z,99195.00
2022-11-05T19:24:38.948Z,99187.03
2022-11-05T19:27:06.735Z,99186.25
2022-11-05T19:29:37.157Z,99179.69
2022-11-05T19:32:05.234Z,99180.75
2022-11-05T19:34:33.134Z,99180.66
2022-11-05T19:37:01.437Z,99179.13
2022-11-05T19:39:29.378Z,99175.94
2022-11-05T19:42:03.767Z,99183.06
2022-11-05T19:44:32.041Z,99190.53
2022-11-05T19:46:59.822Z,99186.00
2022-11-05T19:49:28.819Z,99186.13
2022-11-05T19:51:58.456Z,99189.06
2022-11-05T19:54:26.424Z,99187.88
2022-11-05T19:56:56.500Z,99188.00
2022-11-05T19:59:25.737Z,99196.69
2022-11-05T20:01:53.550Z,99188.88
2022-11-05T20:04:23.369Z,99189.97
2022-11-05T20:06:54.649Z,99198.09
2022-11-05T20:09:23.270Z,99200.75
2022-11-05T20:12:14.146Z,99188.06
2022-11-05T20:14:41.957Z,99191.66
2022-11-05T20:17:13.010Z,99195.84
2022-11-05T20:19:47.960Z,99202.25
2022-11-05T20:22:15.758Z,99204.75
2022-11-05T20:24:43.616Z,99202.13
2022-11-05T20:27:14.023Z,99202.47
2022-11-05T20:29:41.908Z,99200.50
2022-11-05T20:32:12.631Z,99210.38
2022-11-05T20:34:40.580Z,99205.13
2022-11-05T20:37:08.604Z,99214.66
2022-11-05T20:39:39.371Z,99216.75
2022-11-05T20:42:07.713Z,99229.91
2022-11-05T20:44:36.031Z,99219.25
2022-11-05T20:47:03.802Z,99219.56
2022-11-05T20:49:31.668Z,99221.13
2022-11-05T20:52:02.282Z,99213.91
2022-11-05T20:54:30.038Z,99215.44
2022-11-05T20:56:59.050Z,99221.88
2022-11-05T20:59:28.729Z,99223.88
2022-11-05T21:01:58.637Z,99232.19
2022-11-05T21:04:31.254Z,99229.69
2022-11-05T21:06:59.044Z,99226.59
2022-11-05T21:09:28.823Z,99227.06
2022-11-05T21:12:11.983Z,99232.19
2022-11-05T21:14:44.480Z,99231.94
2022-11-05T21:17:14.859Z,99241.75
2022-11-05T21:19:45.692Z,99239.78
2022-11-05T21:22:17.220Z,99240.59
2022-11-05T21:24:46.529Z,99250.25
2022-11-05T21:27:14.285Z,99247.53
2022-11-05T21:29:42.521Z,99257.53
2022-11-05T21:32:13.741Z,99245.91
2022-11-05T21:34:42.582Z,99241.84
2022-11-05T21:37:11.392Z,99241.19
2022-11-05T21:39:42.604Z,99259.31
2022-11-05T21:42:10.343Z,99257.13
2022-11-05T21:44:38.068Z,99246.28
2022-11-05T21:47:06.027Z,99258.81
2022-11-05T21:49:36.122Z,99259.56
2022-11-05T21:52:24.969Z,99256.03
2022-11-05T21:55:11.218Z,99250.09
2022-11-05T21:57:58.554Z,99248.25
2022-11-05T22:00:26.464Z,99242.84
2022-11-05T22:02:58.761Z,99248.78
2022-11-05T22:05:28.054Z,99254.81
2022-11-05T22:07:56.958Z,99266.59
2022-11-05T22:10:24.852Z,99263.50
2022-11-05T22:12:52.523Z,99266.38
2022-11-05T22:15:20.380Z,99266.38
2022-11-05T22:17:51.995Z,99264.81
2022-11-05T22:20:22.599Z,99267.16
2022-11-05T22:22:50.474Z,99266.69
2022-11-05T22:25:18.322Z,99261.53
2022-11-05T22:27:46.315Z,99262.03
2022-11-05T22:30:14.882Z,99263.72
2022-11-05T22:32:42.765Z,99256.44
2022-11-05T22:35:10.908Z,99255.34
2022-11-05T22:37:38.676Z,99262.16
2022-11-05T22:40:07.113Z,99257.13
2022-11-05T22:42:34.929Z,99262.16
2022-11-05T22:45:02.871Z,99268.28
2022-11-05T22:47:30.531Z,99266.78
2022-11-05T22:49:58.542Z,99272.38
2022-11-05T22:52:27.884Z,99261.31
2022-11-05T22:54:55.595Z,99256.47
2022-11-05T22:57:23.273Z,99267.44
2022-11-05T22:59:51.467Z,99259.66
2022-11-05T23:02:19.360Z,99257.91
2022-11-05T23:04:47.247Z,99264.03
2022-11-05T23:07:33.568Z,99260.19
2022-11-05T23:10:20.022Z,99268.78
2022-11-05T23:12:48.264Z,99265.50
2022-11-05T23:15:34.205Z,99275.13
2022-11-05T23:18:20.953Z,99279.75
2022-11-05T23:21:07.009Z,99274.56
2022-11-05T23:23:53.672Z,99274.50
2022-11-05T23:26:40.175Z,99271.84
2022-11-05T23:29:07.900Z,99280.53
2022-11-05T23:31:53.939Z,99279.63
2022-11-05T23:34:21.600Z,99279.31
2022-11-05T23:37:09.184Z,99277.34
2022-11-05T23:39:41.402Z,99281.09
2022-11-05T23:42:29.173Z,99288.22
2022-11-05T23:45:15.611Z,99278.53
2022-11-05T23:48:02.627Z,99280.97
2022-11-05T23:50:35.620Z,99276.47
2022-11-05T23:53:07.451Z,99278.31
2022-11-05T23:55:35.685Z,99263.59
2022-11-05T23:58:03.346Z,99274.91
